Time;durP1;ratioP1;P1;durP2;ratioP2;P2;SDS_P1;SDS_P2;PMS_P1;PMS_P2;Temp;Humidity;BMP_temperature;BMP_pressure;BME280_temperature;BME280_humidity;BME280_pressure;Samples;Min_cycle;Max_cycle;Signal;HPM_P1;HPM_P2
2021/11/07 00:02:17;;;;;;;12.53;11.23;;;;;;;0.45;100.00;98837.47;5076978;28;20212;-73
2021/11/07 00:04:47;;;;;;;13.30;10.83;;;;;;;0.45;100.00;98837.47;5080707;28;20227;-75
2021/11/07 00:07:18;;;;;;;15.90;13.23;;;;;;;0.43;100.00;98819.28;5086569;28;20228;-73
2021/11/07 00:09:57;;;;;;;12.77;11.03;;;;;;;0.50;100.00;98807.59;5076604;28;20213;-75
2021/11/07 00:12:28;;;;;;;14.20;11.57;;;;;;;0.51;100.00;98792.81;5063949;28;20813;-76
2021/11/07 00:14:58;;;;;;;14.60;11.93;;;;;;;0.43;100.00;98788.84;5076421;28;20210;-76
2021/11/07 00:17:28;;;;;;;12.80;11.43;;;;;;;0.47;100.00;98776.47;5077597;28;20226;-75
2021/11/07 00:20:00;;;;;;;12.97;11.17;;;;;;;0.42;100.00;98757.63;5053674;28;20241;-75
2021/11/07 00:22:35;;;;;;;13.17;10.97;;;;;;;0.43;100.00;98754.94;5081016;28;20271;-76
2021/11/07 00:25:15;;;;;;;11.77;10.57;;;;;;;0.34;100.00;98751.97;5078976;28;20559;-73
2021/11/07 00:27:46;;;;;;;13.77;12.10;;;;;;;0.34;100.00;98759.78;5086414;28;20205;-74
2021/11/07 00:30:19;;;;;;;13.57;10.73;;;;;;;0.36;100.00;98773.59;5070642;28;20226;-73
2021/11/07 00:32:56;;;;;;;13.17;10.80;;;;;;;0.19;100.00;98787.50;5075076;28;20646;-76
2021/11/07 00:38:15;;;;;;;10.97;9.87;;;;;;;0.13;100.00;98801.69;5076444;28;20613;-73
2021/11/07 00:40:48;;;;;;;11.23;9.27;;;;;;;0.16;100.00;98790.28;5085031;28;20226;-75
2021/11/07 00:43:22;;;;;;;11.63;10.37;;;;;;;0.27;100.00;98795.75;5069208;28;20989;-73
2021/11/07 00:46:03;;;;;;;11.20;9.73;;;;;;;0.20;100.00;98789.19;5085076;28;20191;-75
2021/11/07 00:48:36;;;;;;;11.67;10.13;;;;;;;0.22;100.00;98795.16;5079934;28;20213;-75
2021/11/07 00:51:10;;;;;;;12.40;11.10;;;;;;;0.18;100.00;98781.44;5053727;28;20229;-73
2021/11/07 00:53:49;;;;;;;11.80;10.33;;;;;;;0.16;100.00;98783.28;5078727;28;20197;-77
2021/11/07 00:56:22;;;;;;;13.10;11.07;;;;;;;0.16;100.00;98783.28;5072596;28;20216;-74
2021/11/07 00:59:02;;;;;;;11.33;10.03;;;;;;;0.17;100.00;98784.97;5069166;28;20214;-76
2021/11/07 01:01:35;;;;;;;13.00;9.93;;;;;;;0.18;100.00;98791.84;5063021;28;20456;-76
2021/11/07 01:04:05;;;;;;;12.10;9.93;;;;;;;0.23;100.00;98781.22;5075765;28;20205;-74
2021/11/07 01:06:34;;;;;;;11.23;10.13;;;;;;;0.18;100.00;98770.19;5048790;28;20214;-77
2021/11/07 01:09:02;;;;;;;12.83;9.90;;;;;;;0.02;100.00;98773.59;5046078;28;20706;-75
2021/11/07 01:11:30;;;;;;;10.87;9.77;;;;;;;0.02;100.00;98785.75;5074687;28;20917;-76
2021/11/07 01:13:58;;;;;;;13.43;10.67;;;;;;;-0.02;100.00;98790.25;5084820;28;20201;-74
2021/11/07 01:16:27;;;;;;;10.83;9.70;;;;;;;-0.04;100.00;98774.72;5083326;28;20732;-76
2021/11/07 01:18:56;;;;;;;9.23;8.33;;;;;;;-0.05;100.00;98762.63;5084730;28;20395;-73
2021/11/07 01:21:25;;;;;;;12.13;10.87;;;;;;;-0.06;100.00;98755.72;5078788;28;20705;-76
2021/11/07 01:23:59;;;;;;;11.57;9.43;;;;;;;0.06;100.00;98745.56;5050091;28;20589;-73
2021/11/07 01:26:31;;;;;;;11.47;9.83;;;;;;;0.03;100.00;98730.09;5081305;28;20206;-73
2021/11/07 01:29:03;;;;;;;8.87;8.03;;;;;;;0.04;100.00;98734.38;5075551;28;20681;-73
2021/11/07 01:31:32;;;;;;;10.80;9.27;;;;;;;0.05;100.00;98743.91;5085643;28;20218;-76
2021/11/07 01:34:03;;;;;;;11.00;9.90;;;;;;;0.07;100.00;98757.69;5078494;28;20258;-73
2021/11/07 01:36:40;;;;;;;10.90;9.67;;;;;;;0.08;100.00;98770.66;5081488;28;20202;-76
2021/11/07 01:39:15;;;;;;;11.67;10.47;;;;;;;0.14;100.00;98764.25;5046585;28;20228;-76
2021/11/07 01:41:57;;;;;;;10.80;9.50;;;;;;;0.15;100.00;98765.94;5078309;28;20581;-73
2021/11/07 01:44:26;;;;;;;11.43;10.27;;;;;;;0.14;100.00;98752.09;5093973;28;20611;-75
2021/11/07 01:46:57;;;;;;;11.83;9.77;;;;;;;0.20;100.00;98739.66;5078485;28;20238;-73
2021/11/07 01:49:33;;;;;;;11.77;9.13;;;;;;;0.27;100.00;98734.06;5078614;28;20218;-75
2021/11/07 01:52:04;;;;;;;12.00;10.53;;;;;;;0.18;100.00;98747.53;5072586;28;20213;-73
2021/11/07 01:54:36;;;;;;;12.60;9.57;;;;;;;0.18;100.00;98749.31;5052145;28;20237;-76
2021/11/07 01:57:04;;;;;;;13.50;10.37;;;;;;;0.11;100.00;98722.72;5074127;28;20709;-76
2021/11/07 01:59:32;;;;;;;12.57;10.50;;;;;;;0.10;100.00;98721.03;5080092;28;20236;-75
2021/11/07 02:02:00;;;;;;;11.13;9.83;;;;;;;0.21;100.00;98721.34;5084819;28;20240;-73
2021/11/07 02:04:30;;;;;;;9.80;8.30;;;;;;;0.21;100.00;98715.28;5079444;28;20209;-75
2021/11/07 02:06:58;;;;;;;10.93;9.63;;;;;;;0.21;100.00;98710.06;5076291;28;20210;-73
2021/11/07 02:09:26;;;;;;;12.50;10.23;;;;;;;0.16;100.00;98689.44;5075888;28;20242;-75
2021/11/07 02:11:57;;;;;;;13.77;10.53;;;;;;;0.16;100.00;98680.78;5041624;28;20210;-73
2021/11/07 02:14:25;;;;;;;12.73;10.33;;;;;;;0.21;100.00;98666.59;5076873;28;20206;-75
2021/11/07 02:16:54;;;;;;;12.03;8.93;;;;;;;0.24;100.00;98670.78;5075300;28;20229;-73
2021/11/07 02:19:22;;;;;;;12.63;9.67;;;;;;;0.23;100.00;98649.09;5076531;28;20238;-75
2021/11/07 02:21:51;;;;;;;14.67;9.87;;;;;;;0.21;100.00;98630.09;5081677;28;20391;-73
2021/11/07 02:24:21;;;;;;;14.67;10.53;;;;;;;0.16;100.00;98611.22;5078885;28;20202;-75
2021/11/07 02:26:52;;;;;;;11.67;10.27;;;;;;;0.21;100.00;98603.16;5050240;28;20677;-73
2021/11/07 02:29:21;;;;;;;14.07;11.30;;;;;;;0.19;100.00;98610.25;5085620;28;20289;-76
2021/11/07 02:31:49;;;;;;;12.53;10.07;;;;;;;0.31;100.00;98617.38;5088845;28;20213;-74
2021/11/07 02:34:17;;;;;;;15.20;11.50;;;;;;;0.34;100.00;98634.63;5076526;28;20498;-76
2021/11/07 02:36:46;;;;;;;14.53;12.47;;;;;;;0.38;100.00;98643.97;5078860;28;20262;-73
2021/11/07 02:39:16;;;;;;;13.53;11.30;;;;;;;0.34;100.00;98647.69;5081646;28;20218;-75
2021/11/07 02:41:45;;;;;;;14.90;10.93;;;;;;;0.36;100.00;98658.88;5049789;28;20218;-73
2021/11/07 02:44:27;;;;;;;15.33;11.93;;;;;;;0.41;100.00;98670.75;5074268;28;20412;-75
2021/11/07 02:46:56;;;;;;;14.37;11.50;;;;;;;0.43;100.00;98668.03;5072987;28;20592;-73
2021/11/07 02:49:24;;;;;;;16.77;13.37;;;;;;;0.49;100.00;98654.66;5087032;28;20218;-75
2021/11/07 02:51:52;;;;;;;16.37;12.07;;;;;;;0.64;100.00;98652.97;5073295;28;20986;-75
2021/11/07 02:54:22;;;;;;;17.33;12.70;;;;;;;0.71;100.00;98648.25;5062883;28;20470;-73
2021/11/07 02:56:51;;;;;;;19.47;13.23;;;;;;;0.69;100.00;98648.34;5051533;28;20769;-76
2021/11/07 02:59:20;;;;;;;19.77;13.73;;;;;;;0.71;100.00;98638.66;5081789;28;20233;-72
2021/11/07 03:01:49;;;;;;;15.87;12.53;;;;;;;0.77;100.00;98645.31;5079249;28;20203;-76
2021/11/07 03:04:17;;;;;;;16.03;13.17;;;;;;;0.78;100.00;98654.00;5074643;28;20202;-76
2021/11/07 03:06:45;;;;;;;25.80;13.80;;;;;;;0.79;100.00;98655.66;5084802;28;20578;-77
2021/11/07 03:09:17;;;;;;;19.03;13.47;;;;;;;0.79;100.00;98660.88;5082751;28;20365;-75
2021/11/07 03:11:46;;;;;;;17.97;13.23;;;;;;;0.83;100.00;98659.78;5050750;28;20837;-75
2021/11/07 03:14:17;;;;;;;19.07;14.37;;;;;;;0.79;100.00;98659.09;5083051;28;20224;-76
2021/11/07 03:16:45;;;;;;;17.97;13.27;;;;;;;0.77;100.00;98652.31;5039319;28;20758;-75
2021/11/07 03:19:13;;;;;;;18.13;13.40;;;;;;;0.80;100.00;98647.75;5076348;28;20461;-76
2021/11/07 03:21:42;;;;;;;16.23;12.87;;;;;;;0.77;100.00;98653.13;5073116;28;20202;-73
2021/11/07 03:24:14;;;;;;;16.87;13.30;;;;;;;0.71;100.00;98663.91;5072310;28;20236;-75
2021/11/07 03:26:42;;;;;;;19.00;13.83;;;;;;;0.68;100.00;98653.66;5080160;28;20217;-73
2021/11/07 03:29:12;;;;;;;18.27;13.13;;;;;;;0.63;100.00;98630.41;5075322;28;20966;-76
2021/11/07 03:31:47;;;;;;;17.67;13.20;;;;;;;0.68;100.00;98636.22;5050456;28;20213;-73
2021/11/07 03:34:23;;;;;;;18.37;12.90;;;;;;;0.69;100.00;98637.91;5082021;28;20204;-76
2021/11/07 03:36:52;;;;;;;18.53;13.57;;;;;;;0.56;100.00;98647.34;5081649;28;20408;-75
2021/11/07 03:39:21;;;;;;;17.97;13.97;;;;;;;0.54;100.00;98655.22;5067788;28;20704;-75
2021/11/07 03:41:51;;;;;;;18.97;13.80;;;;;;;0.69;100.00;98656.16;5075509;28;20422;-75
2021/11/07 03:44:22;;;;;;;21.53;15.60;;;;;;;0.76;100.00;98650.59;5080467;28;20403;-75
2021/11/07 03:46:52;;;;;;;19.23;14.33;;;;;;;0.81;100.00;98643.38;5048247;28;20332;-75
2021/11/07 03:49:21;;;;;;;17.73;14.33;;;;;;;0.98;100.00;98639.81;5074255;28;20206;-75
2021/11/07 03:51:49;;;;;;;20.53;14.73;;;;;;;0.93;100.00;98639.22;5075862;28;20228;-73
2021/11/07 03:54:19;;;;;;;22.43;15.27;;;;;;;0.92;100.00;98635.78;5076637;28;20206;-75
2021/11/07 03:56:47;;;;;;;21.57;15.23;;;;;;;0.97;100.00;98631.13;5065688;28;20430;-76
2021/11/07 03:59:15;;;;;;;23.77;14.23;;;;;;;1.02;100.00;98628.28;5083406;28;20226;-76
2021/11/07 04:01:44;;;;;;;18.83;13.23;;;;;;;1.03;100.00;98626.47;5052556;28;20968;-73
2021/11/07 04:04:12;;;;;;;18.97;13.53;;;;;;;1.03;100.00;98621.25;5071305;28;20206;-76
2021/11/07 04:06:40;;;;;;;21.53;14.73;;;;;;;0.98;100.00;98611.94;5073147;28;20202;-75
2021/11/07 04:09:09;;;;;;;21.40;14.70;;;;;;;1.14;100.00;98606.66;5074727;28;20199;-75
2021/11/07 04:11:38;;;;;;;20.67;14.57;;;;;;;1.00;100.00;98596.19;5060653;28;20210;-74
2021/11/07 04:14:07;;;;;;;26.93;15.27;;;;;;;1.03;100.00;98593.41;5063449;28;20219;-73
2021/11/07 04:16:37;;;;;;;20.43;13.20;;;;;;;0.94;100.00;98593.91;5075932;28;20336;-72
2021/11/07 04:19:06;;;;;;;19.50;13.83;;;;;;;0.94;100.00;98578.25;5037123;28;20233;-73
2021/11/07 04:21:34;;;;;;;18.77;13.73;;;;;;;0.82;100.00;98578.03;5080664;28;20209;-77
2021/11/07 04:24:02;;;;;;;22.40;15.17;;;;;;;0.76;100.00;98573.19;5074176;28;20662;-74
2021/11/07 04:26:31;;;;;;;20.47;14.63;;;;;;;0.90;100.00;98568.91;5062062;28;20761;-76
2021/11/07 04:28:59;;;;;;;21.30;14.67;;;;;;;0.85;100.00;98574.44;5073878;28;20202;-76
2021/11/07 04:31:27;;;;;;;21.13;14.73;;;;;;;0.74;100.00;98580.25;5069889;28;20458;-75
2021/11/07 04:33:55;;;;;;;16.93;13.10;;;;;;;0.99;100.00;98584.91;5040077;28;20215;-76
2021/11/07 04:36:24;;;;;;;22.47;15.23;;;;;;;0.89;100.00;98585.50;5061060;28;20210;-77
2021/11/07 04:38:52;;;;;;;24.27;14.23;;;;;;;0.90;100.00;98568.91;5063344;28;20230;-76
2021/11/07 04:41:21;;;;;;;18.87;13.43;;;;;;;0.98;100.00;98564.94;5051317;28;20431;-74
2021/11/07 04:43:50;;;;;;;22.30;14.93;;;;;;;0.81;100.00;98554.66;5073565;28;20199;-77
2021/11/07 04:46:19;;;;;;;21.77;14.50;;;;;;;0.78;100.00;98542.63;5064298;28;20203;-74
2021/11/07 04:48:48;;;;;;;22.10;14.90;;;;;;;0.81;100.00;98542.44;5041571;28;20700;-76
2021/11/07 04:51:18;;;;;;;22.10;15.47;;;;;;;0.81;100.00;98541.63;5061438;28;20222;-75
2021/11/07 04:53:47;;;;;;;23.27;15.23;;;;;;;0.73;100.00;98526.41;5065116;28;20205;-77
2021/11/07 04:56:15;;;;;;;21.60;15.37;;;;;;;0.69;100.00;98530.94;5056760;28;20549;-74
2021/11/07 04:58:44;;;;;;;18.90;13.87;;;;;;;0.53;100.00;98530.16;5057003;28;20206;-77
2021/11/07 05:01:11;;;;;;;21.30;14.57;;;;;;;0.56;100.00;98532.56;5058629;28;20627;-74
2021/11/07 05:03:39;;;;;;;19.50;14.43;;;;;;;0.68;100.00;98546.69;5044625;28;20214;-76
2021/11/07 05:06:07;;;;;;;18.73;13.67;;;;;;;0.70;100.00;98539.63;5071901;28;20209;-75
2021/11/07 05:08:36;;;;;;;23.47;15.80;;;;;;;0.70;100.00;98529.19;5084425;28;20323;-77
2021/11/07 05:11:06;;;;;;;20.73;14.60;;;;;;;0.65;100.00;98523.38;5072478;28;20229;-74
2021/11/07 05:13:34;;;;;;;20.70;14.83;;;;;;;0.75;100.00;98513.25;5066391;28;20498;-77
2021/11/07 05:16:02;;;;;;;23.37;14.67;;;;;;;0.66;100.00;98519.84;5063653;28;20603;-76
2021/11/07 05:18:30;;;;;;;21.27;15.73;;;;;;;0.57;100.00;98506.41;5073736;28;20603;-78
2021/11/07 05:20:58;;;;;;;20.20;14.83;;;;;;;0.53;100.00;98507.50;5039149;28;20244;-77
2021/11/07 05:23:26;;;;;;;23.37;15.77;;;;;;;0.64;100.00;98504.28;5030089;28;20214;-74
2021/11/07 05:25:56;;;;;;;20.50;14.63;;;;;;;0.63;100.00;98496.56;5065663;28;20206;-76
2021/11/07 05:28:26;;;;;;;19.30;15.00;;;;;;;0.67;100.00;98496.28;5073473;28;20213;-74
2021/11/07 05:30:54;;;;;;;19.30;14.33;;;;;;;0.59;100.00;98488.06;5063360;28;20268;-76
2021/11/07 05:33:22;;;;;;;19.27;13.27;;;;;;;0.62;100.00;98490.47;5063234;28;20243;-74
2021/11/07 05:35:50;;;;;;;24.00;15.53;;;;;;;0.62;100.00;98492.28;5063129;28;20217;-76
2021/11/07 05:38:18;;;;;;;21.70;15.13;;;;;;;0.59;100.00;98492.44;5055613;28;20231;-74
2021/11/07 05:40:47;;;;;;;21.50;15.00;;;;;;;0.66;100.00;98501.59;5077044;28;20674;-73
2021/11/07 05:43:15;;;;;;;23.57;15.00;;;;;;;0.57;100.00;98498.59;5079256;28;20845;-72
2021/11/07 05:45:44;;;;;;;25.63;15.50;;;;;;;0.48;100.00;98501.69;5064683;28;20525;-73
2021/11/07 05:48:12;;;;;;;20.13;14.47;;;;;;;0.38;100.00;98496.19;5078592;28;20202;-75
2021/11/07 05:50:41;;;;;;;22.20;14.43;;;;;;;0.51;100.00;98493.69;5077666;28;20221;-71
2021/11/07 05:53:09;;;;;;;24.67;15.57;;;;;;;0.52;100.00;98492.78;5037596;28;20217;-73
2021/11/07 05:55:37;;;;;;;24.07;14.77;;;;;;;0.47;100.00;98492.19;5065826;28;20209;-73
2021/11/07 05:58:05;;;;;;;19.13;14.37;;;;;;;0.41;100.00;98485.59;5080141;28;20203;-73
2021/11/07 06:00:33;;;;;;;19.50;13.57;;;;;;;0.35;100.00;98482.47;5065354;28;20694;-74
2021/11/07 06:03:06;;;;;;;19.23;13.97;;;;;;;0.33;100.00;98482.56;5078159;28;20210;-76
2021/11/07 06:05:35;;;;;;;22.57;15.73;;;;;;;0.32;100.00;98480.06;5074702;28;20356;-75
2021/11/07 06:08:03;;;;;;;18.93;14.07;;;;;;;0.33;100.00;98476.50;5037054;28;20214;-75
2021/11/07 06:10:35;;;;;;;22.47;15.03;;;;;;;0.26;100.00;98466.44;5066704;28;20772;-76
2021/11/07 06:13:03;;;;;;;20.93;14.70;;;;;;;0.35;100.00;98457.22;5079636;28;20211;-76
2021/11/07 06:15:31;;;;;;;16.83;13.03;;;;;;;0.34;100.00;98460.75;5050811;28;20210;-73
2021/11/07 06:17:59;;;;;;;20.33;14.30;;;;;;;0.41;100.00;98458.66;5074147;28;20225;-76
2021/11/07 06:20:29;;;;;;;21.10;15.00;;;;;;;0.43;100.00;98455.03;5074469;28;20299;-73
2021/11/07 06:22:57;;;;;;;22.40;15.13;;;;;;;0.40;100.00;98456.97;5036252;28;20205;-75
2021/11/07 06:25:25;;;;;;;20.07;14.23;;;;;;;0.47;100.00;98452.25;5069362;28;20222;-74
2021/11/07 06:27:56;;;;;;;22.80;14.73;;;;;;;0.50;100.00;98454.69;5079448;28;20245;-76
2021/11/07 06:30:24;;;;;;;24.03;15.93;;;;;;;0.53;100.00;98451.91;5067504;28;20701;-73
2021/11/07 06:32:52;;;;;;;21.33;13.80;;;;;;;0.48;100.00;98449.53;5075296;28;20198;-75
2021/11/07 06:35:20;;;;;;;21.10;14.03;;;;;;;0.56;100.00;98438.69;5072473;28;20214;-73
2021/11/07 06:37:50;;;;;;;24.10;16.03;;;;;;;0.72;100.00;98455.09;5044190;28;20297;-74
2021/11/07 06:40:18;;;;;;;21.40;14.73;;;;;;;0.73;100.00;98455.94;5079530;28;20226;-76
2021/11/07 06:42:46;;;;;;;20.17;13.90;;;;;;;0.80;100.00;98464.25;5074372;28;20546;-73
2021/11/07 06:45:18;;;;;;;25.33;15.47;;;;;;;0.83;100.00;98449.25;5066267;28;20213;-74
2021/11/07 06:47:47;;;;;;;22.73;16.00;;;;;;;0.82;100.00;98454.56;5073059;28;20206;-73
2021/11/07 06:50:15;;;;;;;23.50;16.93;;;;;;;0.91;100.00;98458.38;5074038;28;20226;-76
2021/11/07 06:52:44;;;;;;;19.53;14.57;;;;;;;0.91;100.00;98455.78;5047162;28;20226;-75
2021/11/07 06:55:14;;;;;;;21.10;15.00;;;;;;;0.97;100.00;98450.22;5039492;28;20515;-73
2021/11/07 06:57:43;;;;;;;19.67;14.50;;;;;;;1.00;100.00;98447.41;5072885;28;20653;-76
2021/11/07 07:00:13;;;;;;;21.80;15.27;;;;;;;1.08;100.00;98441.72;5060834;28;20229;-74
2021/11/07 07:02:42;;;;;;;20.03;13.63;;;;;;;1.21;100.00;98447.03;5069755;28;20198;-75
2021/11/07 07:05:12;;;;;;;19.23;14.20;;;;;;;1.26;100.00;98440.59;5076182;28;20209;-74
2021/11/07 07:07:44;;;;;;;22.57;14.30;;;;;;;1.42;100.00;98452.72;5076282;28;20281;-77
2021/11/07 07:10:20;;;;;;;19.53;14.30;;;;;;;1.37;100.00;98447.78;5045052;28;20634;-76
2021/11/07 07:12:52;;;;;;;20.10;14.40;;;;;;;1.38;100.00;98440.78;5074477;28;20661;-76
2021/11/07 07:15:23;;;;;;;16.47;14.13;;;;;;;1.46;100.00;98435.09;5054754;28;20732;-77
2021/11/07 07:17:56;;;;;;;19.70;13.27;;;;;;;1.55;100.00;98429.28;5074658;28;20202;-77
2021/11/07 07:20:43;;;;;;;17.73;14.07;;;;;;;1.68;100.00;98424.13;5070668;28;20222;-76
2021/11/07 07:29:13;;;;;;;17.80;12.77;;;;;;;1.96;100.00;98423.19;5073678;28;20290;-77
2021/11/07 07:32:11;;;;;;;16.17;12.40;;;;;;;2.03;100.00;98419.25;5054399;28;20215;-76
2021/11/07 07:34:42;;;;;;;21.27;14.77;;;;;;;2.22;100.00;98411.97;5063039;28;20214;-77
2021/11/07 07:37:10;;;;;;;15.07;12.53;;;;;;;2.15;100.00;98411.56;5073956;28;20213;-77
2021/11/07 07:39:38;;;;;;;14.57;12.03;;;;;;;2.10;100.00;98405.81;5067147;28;20293;-78
2021/11/07 07:42:08;;;;;;;17.20;14.13;;;;;;;2.23;100.00;98396.19;5077529;28;20694;-77
2021/11/07 07:44:37;;;;;;;16.23;13.63;;;;;;;2.36;100.00;98395.38;5074559;28;20198;-78
2021/11/07 07:47:05;;;;;;;16.57;13.57;;;;;;;2.49;100.00;98390.16;5053418;28;20217;-76
2021/11/07 07:49:33;;;;;;;17.80;13.10;;;;;;;2.66;100.00;98389.88;5077449;28;20240;-77
2021/11/07 07:52:01;;;;;;;15.90;14.20;;;;;;;3.05;100.00;98392.47;5074089;28;20202;-76
2021/11/07 07:54:29;;;;;;;16.83;14.40;;;;;;;3.14;100.00;98386.59;5070542;28;21424;-74
2021/11/07 07:56:58;;;;;;;14.90;12.20;;;;;;;3.10;100.00;98387.75;5068943;28;20202;-76
2021/11/07 07:59:27;;;;;;;16.13;12.47;;;;;;;3.42;100.00;98375.97;5070025;28;20233;-74
2021/11/07 08:01:58;;;;;;;15.00;12.23;;;;;;;3.68;100.00;98381.97;5046640;28;20255;-77
2021/11/07 08:04:26;;;;;;;20.63;13.40;;;;;;;3.87;100.00;98380.63;5082019;28;20636;-78
2021/11/07 08:06:55;;;;;;;14.63;11.47;;;;;;;3.86;100.00;98384.19;5075564;28;20260;-78
2021/11/07 08:09:23;;;;;;;19.87;14.57;;;;;;;4.20;100.00;98386.97;5077583;28;20198;-79
2021/11/07 08:11:51;;;;;;;13.87;12.47;;;;;;;3.96;100.00;98385.19;5067549;28;20708;-77
2021/11/07 08:14:19;;;;;;;11.60;9.97;;;;;;;4.08;100.00;98374.75;5080127;28;20769;-78
2021/11/07 08:16:48;;;;;;;11.10;9.97;;;;;;;4.16;100.00;98369.78;5054513;28;20213;-76
2021/11/07 08:19:17;;;;;;;11.30;10.10;;;;;;;4.22;100.00;98368.50;5084154;28;20435;-76
2021/11/07 08:21:45;;;;;;;11.40;10.20;;;;;;;4.32;100.00;98362.41;5080585;28;20232;-77
2021/11/07 08:24:14;;;;;;;10.77;9.67;;;;;;;4.11;100.00;98351.75;5083865;28;20251;-79
2021/11/07 08:26:43;;;;;;;14.90;11.97;;;;;;;4.25;100.00;98349.91;5071858;28;20202;-74
2021/11/07 08:29:13;;;;;;;11.37;9.87;;;;;;;4.27;100.00;98361.09;5076175;28;20285;-77
2021/11/07 08:31:43;;;;;;;10.37;9.23;;;;;;;3.99;100.00;98356.13;5058302;28;20220;-76
2021/11/07 08:34:13;;;;;;;10.47;9.30;;;;;;;4.10;100.00;98357.94;5073568;28;20231;-78
2021/11/07 08:36:48;;;;;;;11.33;10.10;;;;;;;4.21;100.00;98365.00;5077525;28;20206;-75
2021/11/07 08:39:19;;;;;;;10.27;9.27;;;;;;;4.25;100.00;98358.59;5077618;28;20586;-80
2021/11/07 08:41:54;;;;;;;10.57;9.57;;;;;;;4.33;100.00;98348.34;5077198;28;20319;-77
2021/11/07 09:01:15;;;;;;;9.60;8.53;;;;;;;4.36;100.00;98339.41;5043076;28;20472;-77
2021/11/07 09:03:49;;;;;;;9.83;8.83;;;;;;;4.29;100.00;98344.28;5032362;28;21841;-76
2021/11/07 09:06:35;;;;;;;10.70;9.70;;;;;;;4.24;100.00;98343.78;5080921;28;20593;-80
2021/11/07 09:09:09;;;;;;;9.57;8.57;;;;;;;4.38;100.00;98347.19;5092882;28;20214;-79
2021/11/07 09:11:37;;;;;;;10.17;8.70;;;;;;;4.24;100.00;98346.41;5076912;28;20194;-75
2021/11/07 09:14:05;;;;;;;10.67;9.57;;;;;;;4.19;100.00;98344.16;5077403;28;20205;-77
2021/11/07 09:16:33;;;;;;;9.37;8.10;;;;;;;4.23;100.00;98344.75;5078054;28;20205;-75
2021/11/07 09:19:01;;;;;;;9.60;8.37;;;;;;;4.16;100.00;98340.91;5068112;28;20202;-78
2021/11/07 09:21:35;;;;;;;10.30;8.77;;;;;;;4.16;100.00;98331.25;5049231;28;20228;-77
2021/11/07 09:24:07;;;;;;;10.33;9.33;;;;;;;4.18;100.00;98328.53;5070158;28;20206;-79
2021/11/07 09:26:39;;;;;;;10.90;8.80;;;;;;;4.18;100.00;98329.38;5076141;28;20213;-76
2021/11/07 09:29:11;;;;;;;8.87;8.07;;;;;;;4.35;100.00;98311.50;5082234;28;20209;-79
2021/11/07 09:31:54;;;;;;;10.50;9.13;;;;;;;4.22;100.00;98290.59;5074960;28;20263;-76
2021/11/07 09:34:34;;;;;;;9.13;8.33;;;;;;;4.34;100.00;98291.47;5069920;28;20597;-75
2021/11/07 09:37:09;;;;;;;9.57;8.17;;;;;;;4.70;100.00;98289.59;5013904;28;20865;-74
2021/11/07 09:39:38;;;;;;;9.37;8.47;;;;;;;4.87;100.00;98300.56;5074786;28;20228;-73
2021/11/07 09:42:31;;;;;;;9.40;8.13;;;;;;;4.87;100.00;98301.41;5074127;28;20614;-74
2021/11/07 09:45:08;;;;;;;9.27;8.40;;;;;;;5.02;100.00;98291.47;5061512;28;20915;-75
2021/11/07 09:47:38;;;;;;;10.90;9.00;;;;;;;4.92;100.00;98295.78;5079889;28;20202;-73
2021/11/07 09:50:11;;;;;;;9.70;8.60;;;;;;;5.15;100.00;98288.72;5058343;28;20301;-75
2021/11/07 09:52:46;;;;;;;8.90;7.77;;;;;;;5.19;100.00;98289.28;5050005;28;20210;-75
2021/11/07 09:55:14;;;;;;;8.87;7.07;;;;;;;5.11;100.00;98289.06;5067901;28;20421;-78
2021/11/07 09:57:43;;;;;;;7.20;6.60;;;;;;;5.08;100.00;98290.16;5077561;28;20546;-76
2021/11/07 10:00:14;;;;;;;8.30;7.50;;;;;;;5.12;100.00;98285.50;5078931;28;20348;-78
2021/11/07 10:02:42;;;;;;;7.60;6.90;;;;;;;5.07;100.00;98284.06;5083042;28;20226;-76
2021/11/07 10:05:13;;;;;;;8.73;7.63;;;;;;;5.17;100.00;98272.81;5083181;28;20509;-78
2021/11/07 10:07:44;;;;;;;8.33;7.40;;;;;;;5.32;100.00;98283.91;5064356;28;20251;-75
2021/11/07 10:10:18;;;;;;;8.83;6.83;;;;;;;5.34;100.00;98285.47;5067445;28;20842;-79
2021/11/07 10:12:49;;;;;;;8.20;7.27;;;;;;;5.30;100.00;98285.81;5078560;28;20201;-75
2021/11/07 10:15:25;;;;;;;7.40;6.70;;;;;;;5.38;100.00;98285.22;5081692;28;20198;-78
2021/11/07 10:17:57;;;;;;;7.53;6.63;;;;;;;5.48;100.00;98288.75;5084212;28;20201;-74
2021/11/07 10:20:29;;;;;;;6.77;6.17;;;;;;;5.44;100.00;98280.28;5083289;28;20226;-78
2021/11/07 10:23:04;;;;;;;7.10;6.40;;;;;;;5.52;100.00;98279.66;5044228;28;20227;-75
2021/11/07 10:25:39;;;;;;;6.73;6.13;;;;;;;5.63;100.00;98273.53;5083371;28;20198;-78
2021/11/07 10:28:19;;;;;;;6.17;5.57;;;;;;;5.57;100.00;98271.41;5073464;28;20406;-77
2021/11/07 10:31:05;;;;;;;6.93;6.33;;;;;;;5.62;100.00;98263.97;5078817;28;20251;-73
2021/11/07 10:33:50;;;;;;;7.17;6.47;;;;;;;5.56;100.00;98259.22;5079973;28;20221;-77
2021/11/07 10:39:14;;;;;;;6.03;5.30;;;;;;;5.66;100.00;98260.13;5039676;28;20218;-77
2021/11/07 10:45:03;;;;;;;6.23;5.63;;;;;;;5.83;100.00;98242.09;5009401;28;20212;-75
2021/11/07 10:53:19;;;;;;;6.07;5.57;;;;;;;5.85;100.00;98233.13;5067554;28;20695;-74
2021/11/07 10:55:51;;;;;;;5.40;4.97;;;;;;;5.75;100.00;98222.53;5044700;28;20207;-73
2021/11/07 10:58:25;;;;;;;5.67;5.17;;;;;;;5.62;100.00;98225.34;5063447;28;20214;-75
2021/11/07 11:00:54;;;;;;;5.93;5.07;;;;;;;5.78;100.00;98224.91;5077732;28;20229;-72
2021/11/07 11:03:24;;;;;;;5.63;5.23;;;;;;;5.87;100.00;98220.69;5068382;28;20254;-75
2021/11/07 11:05:56;;;;;;;5.83;5.33;;;;;;;5.75;100.00;98222.53;5059671;28;20565;-75
2021/11/07 11:08:34;;;;;;;5.80;5.00;;;;;;;5.71;100.00;98215.06;5061041;28;20311;-76
2021/11/07 11:11:08;;;;;;;5.87;5.37;;;;;;;5.72;100.00;98225.44;5037328;28;20701;-72
2021/11/07 11:13:46;;;;;;;5.20;4.80;;;;;;;5.65;100.00;98216.38;5070390;28;20257;-75
2021/11/07 11:22:17;;;;;;;5.10;4.70;;;;;;;5.52;100.00;98211.31;5061291;28;20523;-75
2021/11/07 11:25:03;;;;;;;5.80;5.30;;;;;;;5.60;100.00;98206.25;5033218;28;20215;-73
2021/11/07 11:27:56;;;;;;;5.77;5.23;;;;;;;5.71;100.00;98204.53;5077493;28;20198;-73
2021/11/07 11:30:59;;;;;;;5.43;4.93;;;;;;;5.63;100.00;98205.97;5080639;28;20624;-76
2021/11/07 11:33:33;;;;;;;5.97;4.93;;;;;;;5.77;100.00;98204.84;5068874;28;20666;-76
2021/11/07 11:36:11;;;;;;;5.23;4.83;;;;;;;5.66;100.00;98207.53;5076767;28;20210;-76
2021/11/07 11:38:46;;;;;;;4.80;4.50;;;;;;;5.70;100.00;98203.69;5066301;28;20201;-72
2021/11/07 11:41:20;;;;;;;5.47;5.07;;;;;;;5.64;100.00;98191.88;5047862;28;20646;-75
2021/11/07 11:43:52;;;;;;;5.13;4.73;;;;;;;5.58;100.00;98187.13;5073811;28;20554;-73
2021/11/07 11:46:26;;;;;;;5.67;5.17;;;;;;;5.72;100.00;98185.16;5036206;28;20206;-76
2021/11/07 11:49:26;;;;;;;6.47;4.83;;;;;;;5.88;100.00;98175.00;5059710;28;20301;-73
2021/11/07 11:52:23;;;;;;;4.77;4.37;;;;;;;5.88;100.00;98182.91;5077732;28;20205;-74
2021/11/07 11:57:53;;;;;;;5.13;4.63;;;;;;;6.14;100.00;98179.06;5082693;28;20201;-75
2021/11/07 12:00:38;;;;;;;5.13;4.67;;;;;;;6.23;100.00;98183.53;5044626;28;20931;-76
2021/11/07 12:03:12;;;;;;;4.43;4.03;;;;;;;6.22;100.00;98173.97;5066256;28;20218;-72
2021/11/07 12:05:43;;;;;;;5.60;4.87;;;;;;;6.35;100.00;98171.09;5079084;28;20206;-73
2021/11/07 12:11:26;;;;;;;4.33;4.03;;;;;;;6.44;100.00;98166.84;5055560;28;20223;-72
2021/11/07 12:14:05;;;;;;;4.53;4.13;;;;;;;6.59;100.00;98157.59;5071631;28;20248;-72
2021/11/07 12:17:04;;;;;;;3.83;3.60;;;;;;;6.89;100.00;98158.50;5042970;28;20217;-73
2021/11/07 12:19:34;;;;;;;3.43;3.23;;;;;;;6.88;100.00;98143.66;5015131;28;20226;-74
2021/11/07 12:22:10;;;;;;;3.63;3.37;;;;;;;6.83;100.00;98145.88;5069713;28;20206;-72
2021/11/07 12:24:54;;;;;;;4.57;3.87;;;;;;;6.81;100.00;98146.00;5074938;28;20233;-75
2021/11/07 12:27:27;;;;;;;3.23;3.03;;;;;;;6.88;100.00;98133.13;5069418;28;20522;-75
2021/11/07 12:29:57;;;;;;;5.00;3.50;;;;;;;6.96;100.00;98137.72;5055139;28;20230;-74
2021/11/07 12:32:32;;;;;;;3.80;3.50;;;;;;;7.03;100.00;98145.91;5048322;28;20217;-72